Time;durP1;ratioP1;P1;durP2;ratioP2;P2;SDS_P1;SDS_P2;PMS_P1;PMS_P2;Temp;Humidity;BMP_temperature;BMP_pressure;BME280_temperature;BME280_humidity;BME280_pressure;Samples;Min_cycle;Max_cycle;Signal;HPM_P1;HPM_P2
2021/12/22 00:01:40;;;;;;;22.63;13.07;;;11.80;80.70;;;;;;10366316;28;20215;-88
2021/12/22 00:06:43;;;;;;;23.20;11.77;;;11.70;80.80;;;;;;10361585;28;20328;-87
2021/12/22 00:11:45;;;;;;;22.27;12.40;;;11.70;80.70;;;;;;10366575;28;20234;-87
2021/12/22 00:16:48;;;;;;;22.17;12.17;;;11.70;80.60;;;;;;10366312;28;20676;-88
2021/12/22 00:21:51;;;;;;;21.00;12.07;;;11.80;80.00;;;;;;10366107;28;20267;-87
2021/12/22 00:26:54;;;;;;;21.53;12.67;;;12.30;78.50;;;;;;10369975;28;20251;-88
2021/12/22 00:32:08;;;;;;;26.90;13.03;;;12.40;77.50;;;;;;10373615;28;20243;-87
2021/12/22 00:37:12;;;;;;;22.40;13.03;;;12.40;77.10;;;;;;10373285;28;20272;-88
2021/12/22 00:42:16;;;;;;;22.90;13.40;;;12.50;76.50;;;;;;10373403;28;20228;-87
2021/12/22 00:47:28;;;;;;;22.10;12.60;;;12.40;76.70;;;;;;10374683;28;20286;-88
2021/12/22 00:52:31;;;;;;;29.70;14.13;;;12.20;76.80;;;;;;10373018;28;20256;-88
2021/12/22 00:57:34;;;;;;;23.53;12.67;;;12.20;76.80;;;;;;10369592;28;20282;-88
2021/12/22 01:02:37;;;;;;;23.20;12.70;;;12.20;76.90;;;;;;10341949;28;20329;-88
2021/12/22 01:07:42;;;;;;;28.10;14.93;;;12.30;76.40;;;;;;10368502;28;20234;-88
2021/12/22 01:12:54;;;;;;;23.57;13.73;;;12.20;76.50;;;;;;10369414;28;20231;-88
2021/12/22 01:18:02;;;;;;;25.60;13.67;;;12.00;77.10;;;;;;10367365;28;20280;-89
2021/12/22 01:23:06;;;;;;;21.40;12.97;;;11.90;77.10;;;;;;10367826;28;20267;-88
2021/12/22 01:28:10;;;;;;;23.40;12.53;;;11.90;76.80;;;;;;10368240;28;20229;-88
2021/12/22 01:33:14;;;;;;;21.83;12.53;;;12.00;76.10;;;;;;10368589;28;20702;-87
2021/12/22 01:38:16;;;;;;;19.60;11.90;;;12.10;76.10;;;;;;10367274;28;20716;-87
2021/12/22 01:43:19;;;;;;;22.97;12.73;;;12.10;76.00;;;;;;10366663;28;20699;-88
2021/12/22 01:54:13;;;;;;;24.07;12.33;;;11.90;76.10;;;;;;10368670;28;20237;-87
2021/12/22 01:59:16;;;;;;;22.33;11.93;;;11.90;76.00;;;;;;10365735;28;20247;-88
2021/12/22 02:04:19;;;;;;;22.30;11.97;;;12.00;75.70;;;;;;10365727;28;20665;-88
2021/12/22 02:09:54;;;;;;;23.00;12.40;;;12.10;75.20;;;;;;10367200;28;20230;-88
2021/12/22 02:14:56;;;;;;;20.67;11.93;;;12.30;74.70;;;;;;10368092;28;20284;-88
2021/12/22 02:19:59;;;;;;;21.67;12.40;;;12.20;74.50;;;;;;10367037;28;20229;-88
2021/12/22 02:25:03;;;;;;;20.17;12.37;;;12.10;74.60;;;;;;10367060;28;20941;-88
2021/12/22 02:30:14;;;;;;;26.80;14.57;;;12.10;74.40;;;;;;10367048;28;20859;-88
2021/12/22 02:35:25;;;;;;;20.57;12.97;;;12.20;74.00;;;;;;10376563;28;20205;-88
2021/12/22 02:40:27;;;;;;;28.27;16.10;;;12.20;73.80;;;;;;10417872;28;20200;-88
2021/12/22 02:45:31;;;;;;;26.63;15.27;;;12.20;73.60;;;;;;10419042;28;20222;-87
2021/12/22 02:50:36;;;;;;;30.27;15.77;;;12.30;73.40;;;;;;10416775;28;20229;-88
2021/12/22 02:55:50;;;;;;;28.10;15.67;;;12.30;73.30;;;;;;10417881;28;20217;-88
2021/12/22 03:01:09;;;;;;;30.50;16.07;;;12.20;73.20;;;;;;10403058;28;20231;-88
2021/12/22 03:06:16;;;;;;;31.80;18.70;;;12.10;73.40;;;;;;10419670;28;20224;-88
2021/12/22 03:11:19;;;;;;;33.63;17.47;;;12.20;73.70;;;;;;10418560;28;20183;-88
2021/12/22 03:16:22;;;;;;;31.10;18.03;;;12.20;72.90;;;;;;10418591;28;20186;-88
2021/12/22 03:21:25;;;;;;;31.53;17.20;;;12.20;72.70;;;;;;10420210;28;20206;-88
2021/12/22 03:26:29;;;;;;;29.27;16.83;;;12.10;72.80;;;;;;10418716;28;20239;-88
2021/12/22 03:31:31;;;;;;;31.40;17.57;;;12.10;72.90;;;;;;10418739;28;20209;-88
2021/12/22 03:36:35;;;;;;;29.63;16.33;;;12.00;72.80;;;;;;10418403;28;20182;-89
2021/12/22 03:41:39;;;;;;;29.97;16.83;;;12.10;72.70;;;;;;10419455;28;20197;-88
2021/12/22 03:46:42;;;;;;;30.67;17.57;;;12.10;72.50;;;;;;10400664;28;20402;-88
2021/12/22 03:51:45;;;;;;;30.10;16.33;;;12.10;72.30;;;;;;10369421;28;20200;-88
2021/12/22 03:56:49;;;;;;;28.53;15.90;;;12.20;72.10;;;;;;10368779;28;20240;-88
2021/12/22 04:01:52;;;;;;;33.13;16.70;;;12.20;72.00;;;;;;10371206;28;20203;-89
2021/12/22 04:06:55;;;;;;;27.80;16.50;;;12.10;71.80;;;;;;10376727;28;20829;-88
2021/12/22 04:11:58;;;;;;;27.83;16.57;;;12.10;71.80;;;;;;10376899;28;20198;-88
2021/12/22 04:17:00;;;;;;;30.37;17.53;;;12.10;71.90;;;;;;10377553;28;20266;-88
2021/12/22 04:22:04;;;;;;;28.10;17.10;;;12.10;71.80;;;;;;10367285;28;20222;-88
2021/12/22 04:27:06;;;;;;;30.60;17.37;;;12.00;71.70;;;;;;10376224;28;20225;-88
2021/12/22 04:32:09;;;;;;;31.63;17.83;;;12.10;71.60;;;;;;10375322;28;20233;-88
2021/12/22 04:37:12;;;;;;;30.13;16.93;;;12.00;71.70;;;;;;10374625;28;20203;-88
2021/12/22 04:42:16;;;;;;;29.13;15.20;;;12.00;71.60;;;;;;10358300;28;20254;-88
2021/12/22 04:47:19;;;;;;;31.03;17.73;;;11.90;71.70;;;;;;10373553;28;20250;-87
2021/12/22 04:52:24;;;;;;;28.53;16.40;;;12.00;71.70;;;;;;10374898;28;20189;-88
2021/12/22 04:57:26;;;;;;;26.87;15.47;;;11.80;71.90;;;;;;10374579;28;20346;-88
2021/12/22 05:02:29;;;;;;;32.20;17.07;;;12.00;71.50;;;;;;10373404;28;20276;-87
2021/12/22 05:07:32;;;;;;;27.87;15.67;;;12.10;71.10;;;;;;10372555;28;20241;-89
2021/12/22 05:12:34;;;;;;;27.63;17.13;;;12.10;71.10;;;;;;10370002;28;20281;-88
2021/12/22 05:18:25;;;;;;;28.43;16.13;;;12.00;71.20;;;;;;10367557;28;20603;-88
2021/12/22 05:22:59;;;;;;;31.23;16.73;;;12.10;70.90;;;;;;10363818;28;20290;-88
2021/12/22 05:28:03;;;;;;;27.47;15.80;;;12.00;71.20;;;;;;10368178;28;20278;-88
2021/12/22 05:33:06;;;;;;;26.37;15.90;;;12.10;70.80;;;;;;10368694;28;20223;-87
2021/12/22 05:38:08;;;;;;;27.10;15.50;;;12.10;70.50;;;;;;10368050;28;20266;-89
2021/12/22 05:43:11;;;;;;;25.07;14.77;;;12.00;70.80;;;;;;10367903;28;20231;-89
2021/12/22 05:48:13;;;;;;;27.33;15.23;;;11.90;70.90;;;;;;10369262;28;20274;-88
2021/12/22 05:53:16;;;;;;;24.63;14.63;;;11.90;71.00;;;;;;10368081;28;21018;-88
2021/12/22 05:58:19;;;;;;;28.03;15.43;;;11.90;70.80;;;;;;10367046;28;20323;-88
2021/12/22 06:03:22;;;;;;;22.10;13.63;;;12.00;71.10;;;;;;10367463;28;20645;-89
2021/12/22 06:08:24;;;;;;;23.80;14.23;;;12.00;70.60;;;;;;10368469;28;20278;-88
2021/12/22 06:13:27;;;;;;;25.53;13.97;;;11.70;71.10;;;;;;10368431;28;20279;-88
2021/12/22 06:18:38;;;;;;;24.30;13.93;;;11.80;71.10;;;;;;10367546;28;20243;-89
2021/12/22 06:23:41;;;;;;;21.97;13.80;;;11.70;71.20;;;;;;10367485;28;20308;-88
2021/12/22 06:28:43;;;;;;;23.20;13.87;;;11.80;71.10;;;;;;10365075;28;20221;-89
2021/12/22 06:33:46;;;;;;;26.17;14.93;;;11.80;71.00;;;;;;10364453;28;20278;-88
2021/12/22 06:38:49;;;;;;;24.33;14.73;;;11.80;70.80;;;;;;10364366;28;20997;-89
2021/12/22 06:43:51;;;;;;;26.07;14.57;;;11.50;71.00;;;;;;10364534;28;20816;-89
2021/12/22 06:48:54;;;;;;;25.37;14.53;;;11.40;71.70;;;;;;10371056;28;20273;-89
2021/12/22 06:53:56;;;;;;;21.10;13.20;;;11.20;72.20;;;;;;10348040;28;20261;-89
2021/12/22 06:59:01;;;;;;;24.63;13.30;;;11.50;72.10;;;;;;10364169;28;20850;-87
2021/12/22 07:04:03;;;;;;;21.10;13.50;;;11.60;71.30;;;;;;10365084;28;20218;-87
2021/12/22 07:09:07;;;;;;;23.67;15.47;;;11.70;71.30;;;;;;10363479;28;20594;-87
2021/12/22 07:14:10;;;;;;;22.20;12.97;;;11.80;70.90;;;;;;10362511;28;20325;-87
2021/12/22 07:19:13;;;;;;;23.40;14.13;;;12.10;70.00;;;;;;10361404;28;20281;-87
2021/12/22 07:24:15;;;;;;;25.13;15.17;;;12.30;69.40;;;;;;10359820;28;20275;-88
2021/12/22 07:29:18;;;;;;;21.80;14.40;;;12.10;69.70;;;;;;10345746;28;20258;-89
2021/12/22 07:34:41;;;;;;;21.27;13.40;;;12.10;69.80;;;;;;10349693;28;20293;-90
2021/12/22 07:39:44;;;;;;;22.97;13.73;;;12.00;69.70;;;;;;10359849;28;20610;-90
2021/12/22 07:44:46;;;;;;;29.00;16.00;;;11.70;70.70;;;;;;10367809;28;20246;-89
2021/12/22 07:49:50;;;;;;;29.23;16.80;;;11.60;70.00;;;;;;10366319;28;20238;-89
2021/12/22 07:54:53;;;;;;;30.37;16.17;;;11.20;71.10;;;;;;10368357;28;20257;-89
2021/12/22 07:59:56;;;;;;;22.97;13.70;;;10.90;71.80;;;;;;10363617;28;20847;-89
2021/12/22 08:04:58;;;;;;;20.07;13.50;;;11.00;73.10;;;;;;10362724;28;20251;-90
2021/12/22 08:10:03;;;;;;;23.43;13.60;;;11.40;72.10;;;;;;10367393;28;20265;-89
2021/12/22 08:15:06;;;;;;;23.67;13.20;;;12.00;70.10;;;;;;10373163;28;20746;-89
2021/12/22 08:20:09;;;;;;;24.43;13.93;;;12.20;69.60;;;;;;10363332;28;20728;-90
2021/12/22 08:25:12;;;;;;;21.17;12.60;;;12.40;68.80;;;;;;10390336;28;20251;-89
2021/12/22 08:30:15;;;;;;;26.67;13.60;;;12.60;68.10;;;;;;10363125;28;20282;-89
2021/12/22 08:35:20;;;;;;;23.23;13.20;;;12.70;67.90;;;;;;10365367;28;20241;-89
2021/12/22 08:40:23;;;;;;;23.37;13.50;;;12.70;67.50;;;;;;10365079;28;20235;-90
2021/12/22 08:45:26;;;;;;;21.27;13.40;;;12.80;67.20;;;;;;10368292;28;20258;-89
2021/12/22 08:50:29;;;;;;;20.57;13.63;;;12.90;66.70;;;;;;10365475;28;20220;-87
2021/12/22 08:55:31;;;;;;;20.03;12.23;;;12.90;66.50;;;;;;10376777;28;20261;-88
2021/12/22 09:00:36;;;;;;;21.03;12.80;;;12.90;66.40;;;;;;10350639;28;20231;-88
2021/12/22 09:05:38;;;;;;;21.33;12.93;;;12.80;66.80;;;;;;10371241;28;20305;-88
2021/12/22 09:10:41;;;;;;;22.87;12.60;;;12.70;66.80;;;;;;10371504;28;20280;-86
2021/12/22 09:15:44;;;;;;;21.37;13.43;;;12.60;66.60;;;;;;10362292;28;20762;-88
2021/12/22 09:20:46;;;;;;;19.40;12.70;;;12.10;67.90;;;;;;10380708;28;20572;-88
2021/12/22 09:25:49;;;;;;;22.30;12.73;;;12.60;67.30;;;;;;10398363;28;20254;-89
2021/12/22 09:30:52;;;;;;;23.10;12.23;;;12.80;66.70;;;;;;10363064;28;20710;-88
2021/12/22 09:35:55;;;;;;;23.30;13.00;;;12.50;66.90;;;;;;10370686;28;20234;-88
2021/12/22 09:40:58;;;;;;;17.90;12.37;;;12.40;67.30;;;;;;10359065;28;20304;-88
2021/12/22 09:46:06;;;;;;;17.43;11.70;;;11.90;68.60;;;;;;10404268;28;20684;-89
2021/12/22 09:56:19;;;;;;;22.17;13.30;;;5.80;72.70;;;;;;10370542;28;20232;-88
2021/12/22 10:01:25;;;;;;;16.70;11.60;;;10.10;78.60;;;;;;10385196;28;20279;-88
2021/12/22 10:06:28;;;;;;;19.60;11.97;;;11.40;73.20;;;;;;10354702;28;20711;-88
2021/12/22 10:11:33;;;;;;;17.87;11.97;;;11.10;72.60;;;;;;10368775;28;20238;-87
2021/12/22 10:16:45;;;;;;;21.90;13.63;;;11.30;73.10;;;;;;10368729;28;20706;-88
2021/12/22 10:22:01;;;;;;;19.10;11.47;;;11.10;69.30;;;;;;10368883;28;20324;-88
2021/12/22 10:27:07;;;;;;;25.37;15.80;;;11.30;72.70;;;;;;10365128;28;20259;-90
2021/12/22 10:32:12;;;;;;;36.60;22.13;;;11.80;68.80;;;;;;10393285;28;20213;-90
2021/12/22 10:37:39;;;;;;;19.17;11.17;;;6.20;67.60;;;;;;10394937;28;20824;-88
2021/12/22 10:42:42;;;;;;;34.07;18.83;;;9.50;86.90;;;;;;10367226;28;20240;-90
2021/12/22 10:53:19;;;;;;;27.63;16.47;;;10.70;75.90;;;;;;10368076;28;20689;-88
2021/12/22 10:58:25;;;;;;;21.27;13.17;;;10.70;76.20;;;;;;10358647;28;20639;-88
2021/12/22 11:03:41;;;;;;;43.87;25.70;;;11.00;74.80;;;;;;10366576;28;20208;-88
2021/12/22 11:08:59;;;;;;;35.97;21.07;;;2.30;80.10;;;;;;10372440;28;20305;-86
2021/12/22 11:14:38;;;;;;;38.43;22.33;;;5.90;90.60;;;;;;10368186;28;20910;-86
2021/12/22 11:20:00;;;;;;;42.63;23.30;;;8.70;73.90;;;;;;10305501;28;20241;-86
2021/12/22 11:25:05;;;;;;;39.70;22.43;;;8.60;71.00;;;;;;10358308;28;20314;-87
2021/12/22 11:30:12;;;;;;;38.43;22.27;;;9.60;67.20;;;;;;10346194;28;20240;-86
2021/12/22 11:35:16;;;;;;;33.23;21.03;;;8.20;70.50;;;;;;10337175;28;20886;-87
2021/12/22 11:40:19;;;;;;;33.27;19.83;;;6.50;72.10;;;;;;10320273;28;20229;-86
2021/12/22 11:45:22;;;;;;;32.33;18.00;;;6.50;76.00;;;;;;10321998;28;20789;-86
2021/12/22 11:50:32;;;;;;;31.90;17.83;;;6.90;80.30;;;;;;10321278;28;20802;-87
2021/12/22 11:55:40;;;;;;;32.77;19.77;;;8.80;74.40;;;;;;10358942;28;20273;-86
2021/12/22 12:01:10;;;;;;;31.97;16.43;;;9.20;69.90;;;;;;10366519;28;20815;-86
2021/12/22 12:06:22;;;;;;;27.57;15.63;;;8.40;75.50;;;;;;10370835;28;20318;-86
2021/12/22 12:11:42;;;;;;;29.30;18.43;;;10.60;70.60;;;;;;10371805;28;20687;-86
2021/12/22 12:22:21;;;;;;;26.37;14.50;;;10.80;63.80;;;;;;10355038;28;20801;-87
2021/12/22 12:27:54;;;;;;;21.87;14.17;;;11.00;64.80;;;;;;10370948;28;20258;-88
2021/12/22 12:32:58;;;;;;;22.47;14.10;;;10.60;67.70;;;;;;10374257;28;20684;-87
2021/12/22 12:38:17;;;;;;;23.17;13.20;;;11.40;67.40;;;;;;10387892;28;20246;-87
2021/12/22 12:43:39;;;;;;;17.97;12.00;;;11.10;69.40;;;;;;10374312;28;20246;-88
2021/12/22 12:48:42;;;;;;;22.63;13.63;;;11.60;69.70;;;;;;10383376;28;20259;-88
2021/12/22 12:53:50;;;;;;;17.60;11.60;;;11.40;70.80;;;;;;10370390;28;20266;-86
2021/12/22 12:58:54;;;;;;;20.23;12.10;;;13.00;68.20;;;;;;10369759;28;20776;-88
2021/12/22 13:03:58;;;;;;;17.73;11.57;;;13.20;68.20;;;;;;10371627;28;20285;-87
2021/12/22 13:09:01;;;;;;;19.97;12.27;;;13.20;68.60;;;;;;10371601;28;20289;-87
2021/12/22 13:19:54;;;;;;;16.60;11.77;;;13.70;68.40;;;;;;10394847;28;20215;-89
2021/12/22 13:25:15;;;;;;;17.77;10.33;;;13.60;69.10;;;;;;10382322;28;20257;-88
2021/12/22 13:30:22;;;;;;;14.57;10.07;;;13.60;69.70;;;;;;10382283;28;20259;-88
2021/12/22 13:35:40;;;;;;;17.97;11.13;;;13.10;71.80;;;;;;10369992;28;20681;-88
2021/12/22 13:40:57;;;;;;;16.73;10.77;;;13.40;68.50;;;;;;10358850;28;20227;-88
2021/12/22 13:46:11;;;;;;;12.83;8.83;;;12.80;71.20;;;;;;10356333;28;20319;-89
2021/12/22 13:51:20;;;;;;;13.57;9.43;;;13.20;73.10;;;;;;10394878;28;20203;-88
2021/12/22 13:56:26;;;;;;;13.67;9.27;;;13.70;71.30;;;;;;10378058;28;20247;-87
2021/12/22 14:01:35;;;;;;;17.37;11.90;;;13.40;72.90;;;;;;10353556;28;20212;-88
2021/12/22 14:06:39;;;;;;;18.40;10.40;;;12.20;72.00;;;;;;10355228;28;20252;-88
2021/12/22 14:11:56;;;;;;;22.70;13.63;;;11.80;72.90;;;;;;10370158;28;20683;-87
2021/12/22 14:17:08;;;;;;;24.10;15.60;;;11.20;75.50;;;;;;10371301;28;20231;-88
2021/12/22 14:22:16;;;;;;;30.17;18.07;;;10.40;76.30;;;;;;10366514;28;20267;-90
2021/12/22 14:27:38;;;;;;;23.90;14.77;;;10.40;76.90;;;;;;10356306;28;20220;-90
2021/12/22 14:32:41;;;;;;;17.83;10.63;;;9.90;80.50;;;;;;10371145;28;20228;-89
2021/12/22 14:37:45;;;;;;;16.80;11.33;;;10.00;83.10;;;;;;10354201;28;20266;-89
2021/12/22 14:43:10;;;;;;;39.00;18.83;;;10.00;81.90;;;;;;10374509;28;20973;-89
2021/12/22 14:48:26;;;;;;;24.37;14.30;;;10.00;82.60;;;;;;10369694;28;20258;-89
2021/12/22 14:53:48;;;;;;;25.83;14.40;;;9.80;85.60;;;;;;10364635;28;20643;-88
2021/12/22 14:58:54;;;;;;;14.00;9.50;;;10.10;84.80;;;;;;10368195;28;20270;-88
2021/12/22 15:03:57;;;;;;;17.70;11.33;;;11.00;84.70;;;;;;10374286;28;20350;-88
2021/12/22 15:09:02;;;;;;;18.37;11.70;;;11.10;83.40;;;;;;10350305;28;20665;-89
2021/12/22 15:14:05;;;;;;;24.37;15.40;;;10.80;83.80;;;;;;10366552;28;20262;-87
2021/12/22 15:19:08;;;;;;;18.03;12.20;;;10.20;84.30;;;;;;10366577;28;20325;-87
2021/12/22 15:24:11;;;;;;;22.03;13.27;;;10.40;85.30;;;;;;10366850;28;20698;-87
2021/12/22 15:29:14;;;;;;;12.63;8.67;;;10.30;83.80;;;;;;10366379;28;20318;-88
2021/12/22 15:34:16;;;;;;;39.73;23.13;;;10.30;85.50;;;;;;10367951;28;20267;-87
2021/12/22 15:39:18;;;;;;;21.20;13.30;;;9.80;73.60;;;;;;10351355;28;20286;-88
2021/12/22 15:44:21;;;;;;;19.40;12.27;;;9.90;85.30;;;;;;10368643;28;20227;-87
2021/12/22 15:49:24;;;;;;;21.87;13.90;;;10.60;85.60;;;;;;10366397;28;20317;-87
2021/12/22 15:54:26;;;;;;;22.93;13.57;;;10.90;81.20;;;;;;10366413;28;20231;-88
2021/12/22 15:59:28;;;;;;;38.13;19.93;;;10.50;82.40;;;;;;10364907;28;20997;-88
2021/12/22 16:04:31;;;;;;;20.13;11.40;;;10.00;83.80;;;;;;10364282;28;20226;-88
2021/12/22 16:09:34;;;;;;;38.97;22.00;;;10.20;86.80;;;;;;10367805;28;20838;-88
2021/12/22 16:14:36;;;;;;;37.00;21.47;;;9.80;80.20;;;;;;10367556;28;20222;-88
2021/12/22 16:19:39;;;;;;;29.33;18.60;;;9.60;83.20;;;;;;10370967;28;20585;-89
2021/12/22 16:24:42;;;;;;;16.90;12.07;;;9.60;83.90;;;;;;10312115;28;20298;-89
2021/12/22 16:29:44;;;;;;;47.83;26.83;;;9.50;86.50;;;;;;10344484;28;20231;-88
2021/12/22 16:34:47;;;;;;;44.30;25.63;;;7.40;80.40;;;;;;10365364;28;20693;-88
2021/12/22 16:39:50;;;;;;;24.43;15.33;;;7.10;87.90;;;;;;10368265;28;20252;-88
2021/12/22 16:44:53;;;;;;;39.60;22.10;;;8.10;91.90;;;;;;10364413;28;20287;-88
2021/12/22 16:49:55;;;;;;;22.30;14.93;;;9.20;90.70;;;;;;10363731;28;20234;-88
2021/12/22 16:54:58;;;;;;;44.37;24.43;;;9.20;91.00;;;;;;10363597;28;20260;-88
2021/12/22 17:00:07;;;;;;;36.00;20.90;;;8.90;82.10;;;;;;10358062;28;20242;-88
2021/12/22 17:05:12;;;;;;;23.37;15.27;;;9.10;86.40;;;;;;10357277;28;20238;-88
2021/12/22 17:10:14;;;;;;;55.47;32.03;;;8.70;87.70;;;;;;10384638;28;20259;-88
2021/12/22 17:15:17;;;;;;;59.93;31.57;;;-0.80;99.90;;;;;;10367768;28;20664;-88
2021/12/22 17:20:19;;;;;;;67.13;34.53;;;-1.00;99.90;;;;;;10371267;28;20671;-89
2021/12/22 17:25:22;;;;;;;70.90;34.83;;;-0.50;99.90;;;;;;10363972;28;20272;-89
2021/12/22 17:30:27;;;;;;;42.13;23.53;;;-0.40;99.90;;;;;;10341051;28;20311;-89
2021/12/22 17:35:31;;;;;;;22.33;13.13;;;1.90;99.90;;;;;;10367002;28;20302;-89
2021/12/22 17:40:34;;;;;;;24.80;13.37;;;4.70;99.90;;;;;;10370341;28;20244;-89
2021/12/22 17:45:37;;;;;;;30.43;17.67;;;6.00;99.90;;;;;;10378560;28;20239;-90
2021/12/22 17:50:40;;;;;;;52.50;27.30;;;6.80;99.90;;;;;;10370980;28;20289;-89
2021/12/22 17:55:42;;;;;;;55.67;30.57;;;7.80;99.90;;;;;;10338965;28;20236;-89
2021/12/22 18:00:48;;;;;;;33.27;19.17;;;7.90;93.30;;;;;;10371325;28;20259;-88
2021/12/22 18:05:58;;;;;;;18.33;10.23;;;8.60;99.90;;;;;;10371216;28;20581;-87
2021/12/22 18:11:04;;;;;;;45.10;25.10;;;9.20;99.90;;;;;;10369760;28;20728;-88
2021/12/22 18:16:07;;;;;;;40.00;24.23;;;9.70;68.70;;;;;;10372036;28;20225;-88
2021/12/22 18:21:09;;;;;;;37.23;21.80;;;9.90;67.60;;;;;;10366816;28;20233;-88
2021/12/22 18:26:12;;;;;;;40.57;22.83;;;8.40;69.10;;;;;;10354194;28;20278;-87
2021/12/22 18:31:15;;;;;;;33.07;19.17;;;7.30;73.20;;;;;;10020212;28;9999753;-87
2021/12/22 18:36:18;;;;;;;42.17;21.87;;;6.40;74.70;;;;;;10364376;28;20247;-86
2021/12/22 18:41:23;;;;;;;34.00;19.17;;;6.10;76.00;;;;;;10326032;28;20637;-86
2021/12/22 18:46:28;;;;;;;41.40;21.27;;;6.40;80.60;;;;;;10353522;28;20282;-87
2021/12/22 18:51:30;;;;;;;45.67;23.90;;;6.20;76.60;;;;;;10334474;28;20719;-88
2021/12/22 18:56:34;;;;;;;65.20;30.77;;;5.50;79.50;;;;;;10363132;28;20224;-88
2021/12/22 19:01:36;;;;;;;42.90;23.07;;;5.60;79.30;;;;;;10366111;28;20239;-88
2021/12/22 19:06:39;;;;;;;56.53;25.47;;;6.00;83.30;;;;;;10366972;28;20235;-88
2021/12/22 19:11:42;;;;;;;35.10;20.20;;;5.80;82.70;;;;;;10348452;28;20263;-88
2021/12/22 19:16:44;;;;;;;37.93;21.70;;;6.50;82.00;;;;;;10348405;28;20306;-89
2021/12/22 19:21:47;;;;;;;36.23;19.50;;;6.50;84.70;;;;;;10365336;28;20315;-88
2021/12/22 19:26:49;;;;;;;25.00;14.20;;;6.70;85.90;;;;;;10362943;28;20289;-89
2021/12/22 19:31:56;;;;;;;30.97;19.00;;;6.70;86.10;;;;;;10348352;28;20209;-87
2021/12/22 19:36:58;;;;;;;34.20;20.07;;;6.10;80.40;;;;;;10358296;28;20577;-88
2021/12/22 19:42:01;;;;;;;33.60;18.03;;;5.90;82.30;;;;;;10346611;28;20255;-87
2021/12/22 19:47:04;;;;;;;40.87;23.03;;;5.70;82.90;;;;;;10363758;28;20227;-87
2021/12/22 19:52:08;;;;;;;34.53;21.63;;;6.00;82.10;;;;;;10363788;28;20254;-87
2021/12/22 19:57:12;;;;;;;44.23;23.47;;;5.60;84.40;;;;;;10343746;28;20228;-88
2021/12/22 20:02:14;;;;;;;45.23;24.47;;;5.40;87.00;;;;;;10331923;28;20267;-87
2021/12/22 20:07:17;;;;;;;33.87;20.83;;;5.60;86.90;;;;;;10347035;28;20248;-88
2021/12/22 20:12:20;;;;;;;41.03;23.93;;;5.80;84.70;;;;;;10365405;28;20684;-87
2021/12/22 20:17:22;;;;;;;31.67;17.20;;;5.90;87.80;;;;;;10345327;28;20236;-88
2021/12/22 20:22:25;;;;;;;33.77;18.30;;;6.70;90.80;;;;;;10342518;28;20721;-88
2021/12/22 20:27:28;;;;;;;37.70;20.77;;;6.90;84.90;;;;;;10337813;28;20307;-87
2021/12/22 20:32:30;;;;;;;41.83;23.50;;;6.90;86.00;;;;;;10364987;28;20775;-87
2021/12/22 20:37:33;;;;;;;51.17;27.87;;;6.20;84.10;;;;;;10364667;28;20315;-87
2021/12/22 20:42:35;;;;;;;28.87;18.07;;;6.60;88.80;;;;;;10338729;28;20201;-87
2021/12/22 20:47:38;;;;;;;25.83;14.63;;;7.30;86.20;;;;;;10368902;28;20281;-87
2021/12/22 20:52:41;;;;;;;47.57;26.93;;;10.20;77.50;;;;;;10371738;28;20237;-88
2021/12/22 20:57:45;;;;;;;54.70;29.07;;;9.90;65.40;;;;;;10369343;28;20275;-88
2021/12/22 21:02:47;;;;;;;48.77;27.03;;;8.20;67.80;;;;;;10353601;28;20295;-87
2021/12/22 21:07:50;;;;;;;46.63;26.50;;;7.50;70.70;;;;;;10353819;28;20260;-87
2021/12/22 21:12:59;;;;;;;58.70;30.60;;;6.50;75.20;;;;;;10373881;28;20266;-87
2021/12/22 21:18:02;;;;;;;54.17;27.60;;;6.30;75.50;;;;;;10356348;28;20236;-87
2021/12/22 21:23:06;;;;;;;56.67;29.77;;;6.30;78.30;;;;;;10372447;28;20291;-87
2021/12/22 21:28:09;;;;;;;57.83;29.77;;;6.70;77.80;;;;;;10386939;28;20286;-87
2021/12/22 21:33:13;;;;;;;60.63;28.43;;;6.90;77.10;;;;;;10372011;28;20228;-88
2021/12/22 21:38:16;;;;;;;53.23;29.83;;;7.00;77.60;;;;;;10368287;28;20228;-87
2021/12/22 21:43:20;;;;;;;55.60;29.13;;;6.50;79.00;;;;;;10371812;28;20286;-86
2021/12/22 21:48:23;;;;;;;69.77;34.13;;;6.40;80.20;;;;;;10370670;28;20306;-88
2021/12/22 21:53:26;;;;;;;45.57;22.93;;;6.10;79.50;;;;;;10371642;28;20235;-88
2021/12/22 21:58:29;;;;;;;44.37;24.60;;;6.50;82.10;;;;;;10368953;28;20740;-87
2021/12/22 22:03:35;;;;;;;64.70;32.00;;;6.80;81.50;;;;;;10364561;28;20291;-86
2021/12/22 22:08:38;;;;;;;81.97;41.03;;;5.80;70.30;;;;;;10369809;28;20235;-86
2021/12/22 22:13:41;;;;;;;82.90;39.40;;;;;;;;;;10369598;28;20230;-86
2021/12/22 22:18:43;;;;;;;66.27;31.93;;;-4.00;99.90;;;;;;10333852;28;20268;-86
2021/12/22 22:23:45;;;;;;;44.83;20.33;;;-0.50;99.90;;;;;;10350544;28;20256;-87
2021/12/22 22:28:48;;;;;;;44.27;22.23;;;2.40;99.90;;;;;;10350268;28;20661;-87
2021/12/22 22:33:51;;;;;;;32.63;17.77;;;3.70;99.90;;;;;;10343241;28;20758;-87
2021/12/22 22:38:54;;;;;;;53.67;27.53;;;5.20;99.90;;;;;;10370793;28;20236;-86
2021/12/22 22:43:56;;;;;;;49.03;25.73;;;5.50;99.90;;;;;;10370299;28;20264;-86
2021/12/22 22:48:59;;;;;;;45.03;23.27;;;0.70;99.90;;;;;;10370280;28;20243;-87
2021/12/22 22:54:01;;;;;;;33.47;18.27;;;3.70;99.90;;;;;;10368565;28;20224;-87
2021/12/22 22:59:04;;;;;;;35.20;19.40;;;5.10;99.90;;;;;;10369718;28;20208;-88
2021/12/22 23:04:26;;;;;;;42.63;23.13;;;6.40;99.90;;;;;;10367008;28;20605;-88
2021/12/22 23:09:29;;;;;;;41.17;21.30;;;7.00;99.90;;;;;;10368205;28;20251;-85
2021/12/22 23:14:33;;;;;;;30.83;17.80;;;7.30;99.90;;;;;;10369672;28;20208;-87
2021/12/22 23:19:35;;;;;;;36.30;19.00;;;7.30;99.90;;;;;;10363883;28;20208;-86
2021/12/22 23:24:38;;;;;;;42.27;22.13;;;7.70;99.90;;;;;;10371994;28;20271;-87
2021/12/22 23:29:41;;;;;;;30.00;17.13;;;7.80;97.50;;;;;;10365422;28;20710;-85
2021/12/22 23:34:43;;;;;;;28.40;16.60;;;8.30;96.90;;;;;;10368751;28;20290;-86
2021/12/22 23:45:21;;;;;;;30.73;16.23;;;8.80;93.40;;;;;;10363555;28;20223;-85
2021/12/22 23:50:24;;;;;;;25.77;15.47;;;9.00;92.70;;;;;;10358401;28;20250;-85
2021/12/22 23:55:26;;;;;;;34.60;19.40;;;9.00;92.10;;;;;;10361009;28;20221;-85
